createdAt,value
2018-09-25T00:02:19.758Z,66.32
2018-09-25T00:04:58.695Z,66.52
2018-09-25T00:07:37.465Z,66.41
2018-09-25T00:10:16.346Z,66.47
2018-09-25T00:12:55.150Z,66.23
2018-09-25T00:15:34.077Z,66.40
2018-09-25T00:18:13.007Z,66.50
2018-09-25T00:20:51.776Z,66.55
2018-09-25T00:23:30.740Z,66.77
2018-09-25T00:26:09.435Z,66.36
2018-09-25T00:28:48.240Z,66.38
2018-09-25T00:31:27.249Z,66.51
2018-09-25T00:34:06.047Z,66.57
2018-09-25T00:36:44.908Z,66.57
2018-09-25T00:39:23.865Z,66.32
2018-09-25T00:42:02.613Z,66.59
2018-09-25T00:44:41.460Z,66.31
2018-09-25T00:47:20.166Z,66.42
2018-09-25T00:49:59.023Z,66.76
2018-09-25T00:52:37.716Z,66.40
2018-09-25T00:55:16.590Z,66.40
2018-09-25T00:57:55.431Z,66.54
2018-09-25T01:00:34.327Z,66.55
2018-09-25T01:03:13.149Z,66.51
2018-09-25T01:05:52.101Z,66.50
2018-09-25T01:08:31.067Z,66.40
2018-09-25T01:11:09.769Z,66.46
2018-09-25T01:13:48.606Z,66.64
2018-09-25T01:16:27.376Z,66.65
2018-09-25T01:19:06.276Z,66.33
2018-09-25T01:21:44.987Z,66.40
2018-09-25T01:24:23.948Z,66.35
2018-09-25T01:27:02.854Z,66.50
2018-09-25T01:29:41.644Z,66.64
2018-09-25T01:32:20.529Z,66.88
2018-09-25T01:34:59.203Z,66.63
2018-09-25T01:37:37.943Z,66.79
2018-09-25T01:40:16.760Z,66.69
2018-09-25T01:42:55.386Z,66.88
2018-09-25T01:45:34.327Z,66.62
2018-09-25T01:48:13.388Z,66.92
2018-09-25T01:50:52.217Z,66.62
2018-09-25T01:53:30.977Z,66.94
2018-09-25T01:56:09.626Z,66.57
2018-09-25T01:58:48.510Z,66.79
2018-09-25T02:01:27.265Z,66.79
2018-09-25T02:04:06.237Z,66.96
2018-09-25T02:06:51.583Z,67.33
2018-09-25T02:09:30.572Z,67.18
2018-09-25T02:12:09.581Z,67.15
2018-09-25T02:14:48.428Z,67.37
2018-09-25T02:17:27.673Z,67.45
2018-09-25T02:20:06.736Z,66.95
2018-09-25T02:22:45.602Z,66.98
2018-09-25T02:25:24.399Z,66.86
2018-09-25T02:28:03.260Z,67.00
2018-09-25T02:30:42.077Z,66.82
2018-09-25T02:33:20.801Z,66.93
2018-09-25T02:35:59.607Z,67.03
2018-09-25T02:38:38.598Z,66.83
2018-09-25T02:41:17.318Z,67.12
2018-09-25T02:43:56.107Z,66.93
2018-09-25T02:46:35.071Z,67.00
2018-09-25T02:49:13.952Z,66.98
2018-09-25T02:51:52.903Z,66.80
2018-09-25T02:54:31.882Z,66.91
2018-09-25T02:57:10.803Z,66.85
2018-09-25T02:59:49.512Z,66.92
2018-09-25T03:02:28.375Z,67.16
2018-09-25T03:05:07.162Z,67.18
2018-09-25T03:07:45.788Z,66.76
2018-09-25T03:10:24.690Z,66.64
2018-09-25T03:13:03.684Z,66.81
2018-09-25T03:15:42.396Z,66.81
2018-09-25T03:18:21.350Z,66.67
2018-09-25T03:21:00.298Z,66.79
2018-09-25T03:23:39.125Z,66.79
2018-09-25T03:26:17.899Z,66.89
2018-09-25T03:28:56.734Z,66.63
2018-09-25T03:31:35.476Z,66.69
2018-09-25T03:34:14.298Z,66.86
2018-09-25T03:36:53.167Z,66.88
2018-09-25T03:39:31.982Z,66.76
2018-09-25T03:42:10.967Z,66.76
2018-09-25T03:44:49.891Z,66.51
2018-09-25T03:47:28.879Z,66.60
2018-09-25T03:50:07.553Z,66.74
2018-09-25T03:52:46.308Z,66.55
2018-09-25T03:55:25.028Z,66.58
2018-09-25T03:58:03.954Z,66.68
2018-09-25T04:00:42.787Z,66.75
2018-09-25T04:03:21.653Z,66.84
2018-09-25T04:06:00.411Z,66.65
2018-09-25T04:08:39.124Z,66.82
2018-09-25T04:11:18.107Z,66.91
2018-09-25T04:13:57.003Z,67.04
2018-09-25T04:16:35.807Z,66.94
2018-09-25T04:19:14.675Z,67.06
2018-09-25T04:21:53.421Z,67.09
2018-09-25T04:24:32.168Z,66.97
2018-09-25T04:27:11.367Z,67.21
2018-09-25T04:29:50.162Z,67.13
2018-09-25T04:32:29.112Z,67.23
2018-09-25T04:35:07.999Z,67.15
2018-09-25T04:37:46.964Z,67.03
2018-09-25T04:40:25.682Z,66.88
2018-09-25T04:43:04.898Z,67.00
2018-09-25T04:45:43.760Z,66.63
2018-09-25T04:48:22.638Z,66.91
2018-09-25T04:51:01.590Z,66.67
2018-09-25T04:53:40.472Z,66.86
2018-09-25T04:56:19.457Z,66.71
2018-09-25T04:58:58.296Z,66.85
2018-09-25T05:01:37.147Z,66.64
2018-09-25T05:04:16.121Z,66.67
2018-09-25T05:06:55.022Z,66.42
2018-09-25T05:09:33.761Z,66.59
2018-09-25T05:12:12.583Z,66.43
2018-09-25T05:14:51.508Z,66.42
2018-09-25T05:17:30.260Z,66.43
2018-09-25T05:20:09.208Z,66.57
2018-09-25T05:22:48.023Z,66.46
2018-09-25T05:25:26.859Z,66.41
2018-09-25T05:28:05.635Z,66.54
2018-09-25T05:30:44.389Z,66.59
2018-09-25T05:33:23.338Z,66.49
2018-09-25T05:36:02.017Z,66.36
2018-09-25T05:38:40.973Z,66.07
2018-09-25T05:41:19.613Z,65.88
2018-09-25T05:43:58.526Z,66.17
2018-09-25T05:46:37.343Z,65.96
2018-09-25T05:49:16.156Z,66.27
2018-09-25T05:51:54.941Z,66.14
2018-09-25T05:54:33.924Z,66.11
2018-09-25T05:57:12.664Z,66.03
2018-09-25T05:59:51.559Z,65.93
2018-09-25T06:02:30.334Z,66.05
2018-09-25T06:05:09.098Z,66.10
2018-09-25T06:07:48.147Z,66.30
2018-09-25T06:10:26.994Z,66.46
2018-09-25T06:13:05.807Z,66.20
2018-09-25T06:15:44.668Z,66.38
2018-09-25T06:18:23.559Z,66.71
2018-09-25T06:21:02.418Z,66.71
2018-09-25T06:23:41.387Z,66.54
2018-09-25T06:26:20.381Z,66.71
2018-09-25T06:28:59.297Z,66.52
2018-09-25T06:31:38.143Z,66.52
2018-09-25T06:34:16.917Z,66.51
2018-09-25T06:36:55.747Z,66.43
2018-09-25T06:39:34.495Z,66.23
2018-09-25T06:42:13.352Z,65.87
2018-09-25T06:44:52.082Z,66.07
2018-09-25T06:47:30.956Z,65.98
2018-09-25T06:50:09.716Z,66.02
2018-09-25T06:52:48.674Z,65.56
2018-09-25T06:55:27.364Z,65.58
2018-09-25T06:58:06.282Z,65.76
2018-09-25T07:00:45.118Z,65.47
2018-09-25T07:03:23.748Z,65.12
2018-09-25T07:06:02.413Z,64.58
2018-09-25T07:08:41.224Z,64.40
2018-09-25T07:11:20.018Z,64.62
2018-09-25T07:13:59.050Z,65.07
2018-09-25T07:16:37.978Z,65.25
2018-09-25T07:19:16.843Z,65.25
2018-09-25T07:21:55.661Z,65.08
2018-09-25T07:24:34.485Z,64.95
2018-09-25T07:27:13.359Z,64.91
2018-09-25T07:29:52.358Z,64.84
2018-09-25T07:32:31.073Z,64.61
2018-09-25T07:35:10.115Z,64.29
2018-09-25T07:37:48.997Z,64.33
2018-09-25T07:40:27.614Z,63.88
2018-09-25T07:43:06.481Z,64.16
2018-09-25T07:45:45.183Z,63.69
2018-09-25T07:48:24.071Z,63.77
2018-09-25T07:51:02.992Z,63.58
2018-09-25T07:53:42.034Z,63.67
2018-09-25T07:56:21.000Z,63.90
2018-09-25T07:58:59.779Z,63.40
2018-09-25T08:01:38.582Z,63.00
2018-09-25T08:04:17.557Z,62.57
2018-09-25T08:06:56.355Z,62.35
2018-09-25T08:09:35.119Z,62.69
2018-09-25T08:12:14.290Z,61.95
2018-09-25T08:14:52.984Z,61.99
2018-09-25T08:17:31.759Z,61.32
2018-09-25T08:20:10.560Z,61.21
2018-09-25T08:22:49.420Z,59.99
2018-09-25T08:25:28.236Z,59.74
2018-09-25T08:28:06.982Z,60.76
2018-09-25T08:30:45.835Z,59.72
2018-09-25T08:33:24.450Z,59.61
2018-09-25T08:36:05.141Z,59.05
2018-09-25T08:38:43.871Z,58.55
2018-09-25T08:41:22.784Z,59.31
2018-09-25T08:44:01.579Z,57.98
2018-09-25T08:46:40.412Z,57.99
2018-09-25T08:49:19.149Z,56.61
2018-09-25T08:51:57.944Z,56.89
2018-09-25T08:54:36.713Z,54.34
2018-09-25T08:57:15.450Z,56.82
2018-09-25T08:59:54.307Z,56.76
2018-09-25T09:02:33.106Z,56.70
2018-09-25T09:05:11.938Z,55.35
2018-09-25T09:07:50.849Z,55.60
2018-09-25T09:10:29.715Z,50.95
2018-09-25T09:13:09.447Z,51.41
2018-09-25T09:15:48.405Z,51.20
2018-09-25T09:18:27.299Z,49.78
2018-09-25T09:21:06.035Z,48.58
2018-09-25T09:23:44.693Z,46.79
2018-09-25T09:26:23.462Z,46.89
2018-09-25T09:29:02.223Z,48.52
2018-09-25T09:31:41.236Z,48.83
2018-09-25T09:34:19.914Z,50.32
2018-09-25T09:36:58.750Z,49.70
2018-09-25T09:39:37.468Z,48.97
2018-09-25T09:42:16.394Z,47.32
2018-09-25T09:44:55.091Z,49.23
2018-09-25T09:47:34.676Z,50.84
2018-09-25T09:50:13.520Z,50.49
2018-09-25T09:52:52.181Z,49.72
2018-09-25T09:55:31.015Z,49.09
2018-09-25T09:58:09.864Z,51.79
2018-09-25T10:00:48.900Z,49.63
2018-09-25T10:03:27.649Z,49.23
2018-09-25T10:06:06.668Z,48.89
2018-09-25T10:08:45.399Z,49.46
2018-09-25T10:11:24.242Z,48.72
2018-09-25T10:14:02.947Z,47.48
2018-09-25T10:16:41.619Z,46.00
2018-09-25T10:19:20.462Z,47.82
2018-09-25T10:21:59.425Z,49.86
2018-09-25T10:24:38.196Z,47.50
2018-09-25T10:27:17.093Z,48.47
2018-09-25T10:29:55.940Z,47.21
2018-09-25T10:32:34.601Z,45.22
2018-09-25T10:35:13.398Z,46.74
2018-09-25T10:37:52.286Z,45.77
2018-09-25T10:40:30.932Z,45.23
2018-09-25T10:43:09.872Z,45.91
2018-09-25T10:45:48.844Z,45.46
2018-09-25T10:48:27.710Z,45.59
2018-09-25T10:51:06.487Z,45.75
2018-09-25T10:53:45.088Z,45.05
2018-09-25T10:56:23.826Z,44.89
2018-09-25T10:59:02.803Z,45.92
2018-09-25T11:01:41.560Z,45.95
2018-09-25T11:04:20.229Z,44.37
2018-09-25T11:06:59.129Z,44.96
2018-09-25T11:09:37.893Z,44.77
2018-09-25T11:12:16.795Z,45.72
2018-09-25T11:14:55.545Z,45.61
2018-09-25T11:17:41.270Z,45.16
2018-09-25T11:20:19.900Z,45.76
2018-09-25T11:23:18.066Z,47.06
2018-09-25T11:25:56.905Z,45.13
2018-09-25T11:28:35.647Z,44.34
2018-09-25T11:31:14.386Z,43.17
2018-09-25T11:33:53.225Z,45.95
2018-09-25T11:36:32.115Z,45.69
2018-09-25T11:39:12.421Z,44.68
2018-09-25T11:41:51.486Z,44.70
2018-09-25T11:44:30.360Z,46.66
2018-09-25T11:47:09.193Z,47.31
2018-09-25T11:49:47.984Z,47.96
2018-09-25T11:52:26.748Z,47.27
2018-09-25T11:55:05.375Z,44.45
2018-09-25T11:57:44.266Z,40.58
2018-09-25T12:00:23.072Z,39.31
2018-09-25T12:03:01.918Z,43.46
2018-09-25T12:05:40.674Z,43.23
2018-09-25T12:08:19.496Z,45.21
2018-09-25T12:10:58.428Z,45.69
2018-09-25T12:13:37.530Z,44.51
2018-09-25T12:16:16.383Z,46.17
2018-09-25T12:18:55.450Z,45.49
2018-09-25T12:21:34.293Z,44.67
2018-09-25T12:24:13.672Z,45.36
2018-09-25T12:26:52.717Z,45.50
2018-09-25T12:29:31.927Z,44.64
2018-09-25T12:32:10.966Z,43.90
2018-09-25T12:34:49.848Z,41.54
2018-09-25T12:37:28.753Z,44.29
2018-09-25T12:40:07.561Z,43.79
2018-09-25T12:42:46.294Z,44.67
2018-09-25T12:45:25.335Z,44.58
2018-09-25T12:48:04.361Z,45.32
2018-09-25T12:50:43.346Z,42.62
2018-09-25T12:53:22.128Z,44.57
2018-09-25T12:56:01.365Z,44.18
2018-09-25T12:58:40.153Z,43.30
2018-09-25T13:01:18.932Z,43.35
2018-09-25T13:03:57.837Z,43.30
2018-09-25T13:06:36.573Z,43.39
2018-09-25T13:09:15.560Z,43.62
2018-09-25T13:11:54.362Z,42.71
2018-09-25T13:14:33.221Z,44.32
2018-09-25T13:17:12.250Z,43.09
2018-09-25T13:19:51.030Z,42.45
2018-09-25T13:22:29.939Z,43.55
2018-09-25T13:25:08.782Z,43.97
2018-09-25T13:27:47.728Z,45.20
2018-09-25T13:30:26.724Z,46.39
2018-09-25T13:33:05.437Z,45.13
2018-09-25T13:35:44.354Z,45.96
2018-09-25T13:38:23.065Z,47.53
2018-09-25T13:41:01.987Z,47.07
2018-09-25T13:43:40.814Z,46.68
2018-09-25T13:46:19.684Z,46.63
2018-09-25T13:48:58.409Z,46.30
2018-09-25T13:51:37.339Z,44.34
2018-09-25T13:54:15.977Z,45.44
2018-09-25T13:56:54.947Z,45.75
2018-09-25T13:59:33.751Z,46.15
2018-09-25T14:02:12.797Z,46.36
2018-09-25T14:04:51.661Z,43.59
2018-09-25T14:07:30.572Z,44.86
2018-09-25T14:10:09.572Z,45.62
2018-09-25T14:12:48.454Z,44.55
2018-09-25T14:15:27.512Z,43.50
2018-09-25T14:18:06.271Z,42.85
2018-09-25T14:20:45.238Z,43.71
2018-09-25T14:23:24.233Z,44.02
2018-09-25T14:26:03.054Z,44.58
2018-09-25T14:28:41.856Z,46.59
2018-09-25T14:31:21.605Z,46.61
2018-09-25T14:34:00.370Z,46.15
2018-09-25T14:36:39.192Z,45.25
2018-09-25T14:39:18.176Z,45.99
2018-09-25T14:41:57.056Z,44.89
2018-09-25T14:44:36.012Z,46.63
2018-09-25T14:47:14.914Z,46.48
2018-09-25T14:49:53.689Z,47.24
2018-09-25T14:52:32.613Z,46.28
2018-09-25T14:55:11.621Z,46.89
2018-09-25T14:57:50.319Z,47.67
2018-09-25T15:00:29.112Z,46.76
2018-09-25T15:03:08.127Z,46.27
2018-09-25T15:05:47.020Z,45.90
2018-09-25T15:08:25.742Z,46.82
2018-09-25T15:11:04.603Z,46.44
2018-09-25T15:13:43.384Z,48.21
2018-09-25T15:16:22.046Z,47.81
2018-09-25T15:19:01.024Z,48.00
2018-09-25T15:21:39.947Z,47.51
2018-09-25T15:24:18.841Z,48.05
2018-09-25T15:26:57.557Z,46.91
2018-09-25T15:29:36.497Z,46.29
2018-09-25T15:32:15.426Z,47.11
2018-09-25T15:34:54.205Z,46.45
2018-09-25T15:37:32.853Z,46.73
2018-09-25T15:40:11.958Z,46.56
2018-09-25T15:42:50.737Z,47.93
2018-09-25T15:45:29.623Z,47.90
2018-09-25T15:48:08.405Z,48.46
2018-09-25T15:50:47.176Z,47.61
2018-09-25T15:53:26.713Z,49.26
2018-09-25T15:56:06.102Z,48.58
2018-09-25T15:58:45.196Z,49.18
2018-09-25T16:01:24.224Z,49.02
2018-09-25T16:04:14.252Z,49.01
2018-09-25T16:06:53.904Z,49.99
2018-09-25T16:09:32.704Z,51.26
2018-09-25T16:12:11.554Z,50.04
2018-09-25T16:14:50.308Z,50.07
2018-09-25T16:17:29.022Z,50.95
2018-09-25T16:20:07.955Z,51.25
2018-09-25T16:22:46.612Z,51.33
2018-09-25T16:25:25.464Z,51.65
2018-09-25T16:28:04.087Z,51.83
2018-09-25T16:30:43.060Z,52.21
2018-09-25T16:33:21.931Z,52.46
2018-09-25T16:36:00.844Z,52.49
2018-09-25T16:38:39.786Z,53.06
2018-09-25T16:41:18.485Z,53.27
2018-09-25T16:43:57.168Z,53.89
2018-09-25T16:46:36.139Z,54.36
2018-09-25T16:49:15.471Z,54.26
2018-09-25T16:51:54.498Z,53.97
2018-09-25T16:54:33.449Z,54.44
2018-09-25T16:57:12.324Z,54.73
2018-09-25T16:59:51.317Z,55.04
2018-09-25T17:02:30.522Z,55.01
2018-09-25T17:05:09.442Z,55.50
2018-09-25T17:07:48.249Z,55.30
2018-09-25T17:10:27.062Z,55.64
2018-09-25T17:13:05.883Z,55.67
2018-09-25T17:15:44.509Z,55.37
2018-09-25T17:18:23.301Z,55.73
2018-09-25T17:21:02.180Z,56.19
2018-09-25T17:23:40.789Z,56.26
2018-09-25T17:26:19.619Z,56.37
2018-09-25T17:28:58.345Z,56.49
2018-09-25T17:31:37.093Z,56.36
2018-09-25T17:34:16.795Z,56.92
2018-09-25T17:36:55.618Z,56.64
2018-09-25T17:39:34.784Z,57.18
2018-09-25T17:42:14.334Z,57.21
2018-09-25T17:44:54.256Z,57.29
2018-09-25T17:47:33.368Z,57.51
2018-09-25T17:50:12.512Z,57.64
2018-09-25T17:52:52.247Z,57.85
2018-09-25T17:55:31.231Z,58.18
2018-09-25T17:58:09.877Z,58.39
2018-09-25T18:00:49.972Z,58.14
2018-09-25T18:03:29.460Z,58.28
2018-09-25T18:06:08.432Z,58.48
2018-09-25T18:08:47.427Z,58.58
2018-09-25T18:11:26.327Z,58.60
2018-09-25T18:14:05.236Z,58.85
2018-09-25T18:16:43.894Z,58.89
2018-09-25T18:19:22.652Z,59.03
2018-09-25T18:22:01.374Z,59.26
2018-09-25T18:24:40.327Z,58.93
2018-09-25T18:27:19.255Z,59.37
2018-09-25T18:29:58.185Z,59.18
2018-09-25T18:32:36.830Z,59.31
2018-09-25T18:35:15.629Z,59.45
2018-09-25T18:37:54.393Z,59.79
2018-09-25T18:40:33.111Z,59.97
2018-09-25T18:43:11.969Z,60.07
2018-09-25T18:45:50.890Z,59.65
2018-09-25T18:48:29.822Z,60.14
2018-09-25T18:51:08.760Z,60.22
2018-09-25T18:53:47.558Z,60.00
2018-09-25T18:56:26.585Z,60.06
2018-09-25T18:59:05.521Z,60.12
2018-09-25T19:01:46.715Z,60.31
2018-09-25T19:04:25.548Z,60.30
2018-09-25T19:07:04.385Z,60.22
2018-09-25T19:09:43.591Z,60.39
2018-09-25T19:12:22.464Z,60.19
2018-09-25T19:15:02.067Z,60.27
2018-09-25T19:17:40.845Z,60.48
2018-09-25T19:20:19.760Z,60.69
2018-09-25T19:22:58.421Z,60.94
2018-09-25T19:25:37.399Z,60.82
2018-09-25T19:28:16.943Z,61.23
2018-09-25T19:30:55.730Z,61.27
2018-09-25T19:33:34.536Z,61.19
2018-09-25T19:36:13.165Z,61.26
2018-09-25T19:38:51.994Z,61.45
2018-09-25T19:41:30.892Z,61.49
2018-09-25T19:44:09.568Z,61.23
2018-09-25T19:46:48.437Z,61.42
2018-09-25T19:49:27.344Z,61.61
2018-09-25T19:52:06.185Z,61.56
2018-09-25T19:54:44.990Z,61.76
2018-09-25T19:57:23.976Z,61.63
2018-09-25T20:00:02.802Z,61.55
2018-09-25T20:02:41.532Z,61.81
2018-09-25T20:05:20.497Z,61.94
2018-09-25T20:07:59.437Z,61.96
2018-09-25T20:10:38.352Z,61.83
2018-09-25T20:13:17.129Z,61.69
2018-09-25T20:15:55.908Z,61.92
2018-09-25T20:18:34.823Z,62.43
2018-09-25T20:21:13.868Z,62.34
2018-09-25T20:23:52.584Z,62.41
2018-09-25T20:26:31.480Z,62.62
2018-09-25T20:29:10.304Z,62.58
2018-09-25T20:31:49.087Z,62.57
2018-09-25T20:34:27.743Z,62.37
2018-09-25T20:37:06.511Z,62.33
2018-09-25T20:39:45.254Z,62.47
2018-09-25T20:42:24.328Z,62.61
2018-09-25T20:45:03.162Z,62.65
2018-09-25T20:47:41.915Z,62.72
2018-09-25T20:50:20.748Z,62.90
2018-09-25T20:52:59.544Z,62.84
2018-09-25T20:55:38.555Z,62.90
2018-09-25T20:58:17.304Z,63.19
2018-09-25T21:00:56.170Z,63.13
2018-09-25T21:03:34.901Z,63.16
2018-09-25T21:06:13.771Z,62.68
2018-09-25T21:08:52.694Z,63.19
2018-09-25T21:11:31.593Z,63.32
2018-09-25T21:14:10.290Z,63.32
2018-09-25T21:16:49.054Z,63.00
2018-09-25T21:19:27.854Z,63.00
2018-09-25T21:22:06.548Z,63.09
2018-09-25T21:24:45.498Z,63.05
2018-09-25T21:27:24.280Z,63.31
2018-09-25T21:30:03.124Z,63.11
2018-09-25T21:32:42.010Z,63.41
2018-09-25T21:35:20.958Z,63.45
2018-09-25T21:37:59.814Z,63.70
2018-09-25T21:40:38.647Z,63.54
2018-09-25T21:43:17.312Z,63.59
2018-09-25T21:45:56.234Z,63.45
2018-09-25T21:48:34.883Z,63.68
2018-09-25T21:51:14.103Z,63.50
2018-09-25T21:53:52.779Z,63.66
2018-09-25T21:56:31.707Z,63.62
2018-09-25T21:59:10.390Z,63.67
2018-09-25T22:01:49.294Z,64.16
2018-09-25T22:04:28.144Z,64.21
2018-09-25T22:07:06.839Z,64.09
2018-09-25T22:09:45.627Z,64.10
2018-09-25T22:12:24.586Z,64.55
2018-09-25T22:15:03.334Z,64.08
2018-09-25T22:17:42.242Z,64.43
2018-09-25T22:20:21.249Z,64.46
2018-09-25T22:23:00.241Z,64.61
2018-09-25T22:25:39.173Z,64.53
2018-09-25T22:28:17.873Z,64.55
2018-09-25T22:30:56.771Z,64.53
2018-09-25T22:33:35.655Z,64.28
2018-09-25T22:36:14.386Z,64.34
2018-09-25T22:38:53.262Z,64.20
2018-09-25T22:41:31.951Z,64.17
2018-09-25T22:44:10.978Z,64.15
2018-09-25T22:46:49.743Z,64.12
2018-09-25T22:49:28.492Z,64.16
2018-09-25T22:52:07.385Z,64.30
2018-09-25T22:54:46.299Z,64.24
2018-09-25T22:57:25.013Z,64.21
2018-09-25T23:00:03.790Z,64.05
2018-09-25T23:02:42.817Z,64.11
2018-09-25T23:05:21.620Z,64.10
2018-09-25T23:08:00.434Z,64.21
2018-09-25T23:10:39.322Z,64.01
2018-09-25T23:13:18.117Z,64.04
2018-09-25T23:15:58.226Z,63.82
2018-09-25T23:18:37.147Z,64.15
2018-09-25T23:21:15.977Z,64.42
2018-09-25T23:23:54.652Z,64.35
2018-09-25T23:26:33.402Z,64.45
2018-09-25T23:29:12.330Z,64.44
2018-09-25T23:31:51.232Z,64.43
2018-09-25T23:34:30.161Z,64.60
2018-09-25T23:37:09.049Z,64.65
2018-09-25T23:40:21.039Z,64.70
2018-09-25T23:42:59.894Z,64.96
2018-09-25T23:46:36.414Z,64.84
2018-09-25T23:49:43.162Z,64.84
2018-09-25T23:52:21.155Z,65.00
2018-09-25T23:55:01.184Z,65.03
2018-09-25T23:57:52.131Z,65.19
